sensor_id;sensor_type;location;lat;lon;timestamp;temperature;humidity
1700;DHT22;847;48.058;7.810;2024-01-30T00:00:42;3.50;99.00
1700;DHT22;847;48.058;7.810;2024-01-30T00:03:09;3.50;99.00
1700;DHT22;847;48.058;7.810;2024-01-30T00:05:35;3.50;99.00
1700;DHT22;847;48.058;7.810;2024-01-30T00:08:02;3.50;99.00
1700;DHT22;847;48.058;7.810;2024-01-30T00:10:29;3.50;99.00
1700;DHT22;847;48.058;7.810;2024-01-30T00:12:56;3.50;99.00
1700;DHT22;847;48.058;7.810;2024-01-30T00:15:29;3.40;99.00
1700;DHT22;847;48.058;7.810;2024-01-30T00:17:56;3.40;99.00
1700;DHT22;847;48.058;7.810;2024-01-30T00:20:22;3.50;99.00
1700;DHT22;847;48.058;7.810;2024-01-30T00:22:49;3.40;99.00
1700;DHT22;847;48.058;7.810;2024-01-30T00:25:16;3.40;99.00
1700;DHT22;847;48.058;7.810;2024-01-30T00:27:42;3.40;99.00
1700;DHT22;847;48.058;7.810;2024-01-30T00:30:10;3.40;99.00
1700;DHT22;847;48.058;7.810;2024-01-30T00:32:38;3.40;99.00
1700;DHT22;847;48.058;7.810;2024-01-30T00:35:06;3.30;99.00
1700;DHT22;847;48.058;7.810;2024-01-30T00:37:32;3.30;99.00
1700;DHT22;847;48.058;7.810;2024-01-30T00:39:59;3.20;99.00
1700;DHT22;847;48.058;7.810;2024-01-30T00:42:26;3.20;99.00
1700;DHT22;847;48.058;7.810;2024-01-30T00:44:52;3.30;99.00
1700;DHT22;847;48.058;7.810;2024-01-30T00:47:19;3.30;99.00
1700;DHT22;847;48.058;7.810;2024-01-30T00:49:47;3.30;99.00
1700;DHT22;847;48.058;7.810;2024-01-30T00:52:14;3.30;99.00
1700;DHT22;847;48.058;7.810;2024-01-30T00:54:41;3.30;99.00
1700;DHT22;847;48.058;7.810;2024-01-30T00:57:08;3.20;99.00
1700;DHT22;847;48.058;7.810;2024-01-30T00:59:35;3.20;99.00
1700;DHT22;847;48.058;7.810;2024-01-30T01:02:01;3.10;99.00
1700;DHT22;847;48.058;7.810;2024-01-30T01:04:28;3.00;99.00
1700;DHT22;847;48.058;7.810;2024-01-30T01:06:56;3.00;99.00
1700;DHT22;847;48.058;7.810;2024-01-30T01:09:24;2.90;99.00
1700;DHT22;847;48.058;7.810;2024-01-30T01:11:51;2.80;99.00
1700;DHT22;847;48.058;7.810;2024-01-30T01:14:22;2.70;99.00
1700;DHT22;847;48.058;7.810;2024-01-30T01:16:55;2.60;99.00
1700;DHT22;847;48.058;7.810;2024-01-30T01:19:21;2.70;99.00
1700;DHT22;847;48.058;7.810;2024-01-30T01:21:48;2.70;99.00
1700;DHT22;847;48.058;7.810;2024-01-30T01:24:16;2.70;99.00
1700;DHT22;847;48.058;7.810;2024-01-30T01:26:43;2.80;99.00
1700;DHT22;847;48.058;7.810;2024-01-30T01:29:09;2.80;99.00
1700;DHT22;847;48.058;7.810;2024-01-30T01:31:37;2.80;99.00
1700;DHT22;847;48.058;7.810;2024-01-30T01:34:09;2.90;99.00
1700;DHT22;847;48.058;7.810;2024-01-30T01:36:35;2.90;99.00
1700;DHT22;847;48.058;7.810;2024-01-30T01:39:02;2.90;99.00
1700;DHT22;847;48.058;7.810;2024-01-30T01:41:31;2.90;99.00
1700;DHT22;847;48.058;7.810;2024-01-30T01:43:58;2.80;99.00
1700;DHT22;847;48.058;7.810;2024-01-30T01:46:27;2.80;99.00
1700;DHT22;847;48.058;7.810;2024-01-30T01:48:54;2.80;99.00
1700;DHT22;847;48.058;7.810;2024-01-30T01:51:22;2.80;99.00
1700;DHT22;847;48.058;7.810;2024-01-30T01:53:49;2.90;99.00
1700;DHT22;847;48.058;7.810;2024-01-30T01:56:16;2.90;99.00
1700;DHT22;847;48.058;7.810;2024-01-30T01:58:46;3.00;99.00
1700;DHT22;847;48.058;7.810;2024-01-30T02:01:14;3.00;99.00
1700;DHT22;847;48.058;7.810;2024-01-30T02:03:48;3.00;99.00
1700;DHT22;847;48.058;7.810;2024-01-30T02:06:16;3.00;99.00
1700;DHT22;847;48.058;7.810;2024-01-30T02:08:43;3.00;99.00
1700;DHT22;847;48.058;7.810;2024-01-30T02:11:10;3.00;99.00
1700;DHT22;847;48.058;7.810;2024-01-30T02:13:37;3.00;99.00
1700;DHT22;847;48.058;7.810;2024-01-30T02:16:05;2.70;99.00
1700;DHT22;847;48.058;7.810;2024-01-30T02:18:32;2.40;99.00
1700;DHT22;847;48.058;7.810;2024-01-30T02:23:29;2.30;99.00
1700;DHT22;847;48.058;7.810;2024-01-30T02:25:57;2.40;99.00
1700;DHT22;847;48.058;7.810;2024-01-30T02:28:23;2.50;99.00
1700;DHT22;847;48.058;7.810;2024-01-30T02:30:50;2.60;99.00
1700;DHT22;847;48.058;7.810;2024-01-30T02:33:18;2.70;99.00
1700;DHT22;847;48.058;7.810;2024-01-30T02:35:47;2.60;99.00
1700;DHT22;847;48.058;7.810;2024-01-30T02:38:15;2.60;99.00
1700;DHT22;847;48.058;7.810;2024-01-30T02:40:44;2.50;99.00
1700;DHT22;847;48.058;7.810;2024-01-30T02:43:11;2.40;99.00
1700;DHT22;847;48.058;7.810;2024-01-30T02:45:37;2.40;99.00
1700;DHT22;847;48.058;7.810;2024-01-30T02:48:05;2.50;99.00
1700;DHT22;847;48.058;7.810;2024-01-30T02:50:31;2.50;99.00
1700;DHT22;847;48.058;7.810;2024-01-30T02:52:58;2.60;99.00
1700;DHT22;847;48.058;7.810;2024-01-30T02:55:25;2.70;99.00
1700;DHT22;847;48.058;7.810;2024-01-30T02:57:53;2.70;99.00
1700;DHT22;847;48.058;7.810;2024-01-30T03:00:20;2.70;99.00
1700;DHT22;847;48.058;7.810;2024-01-30T03:02:47;2.70;99.00
1700;DHT22;847;48.058;7.810;2024-01-30T03:05:15;2.70;99.00
1700;DHT22;847;48.058;7.810;2024-01-30T03:07:42;2.80;99.00
1700;DHT22;847;48.058;7.810;2024-01-30T03:10:09;2.80;99.00
1700;DHT22;847;48.058;7.810;2024-01-30T03:12:36;2.80;99.00
1700;DHT22;847;48.058;7.810;2024-01-30T03:15:05;2.80;99.00
1700;DHT22;847;48.058;7.810;2024-01-30T03:17:32;2.80;99.00
1700;DHT22;847;48.058;7.810;2024-01-30T03:19:58;2.60;99.00
1700;DHT22;847;48.058;7.810;2024-01-30T03:22:25;2.30;99.00
1700;DHT22;847;48.058;7.810;2024-01-30T03:24:52;2.30;99.00
1700;DHT22;847;48.058;7.810;2024-01-30T03:27:19;2.30;99.00
1700;DHT22;847;48.058;7.810;2024-01-30T03:29:45;2.30;99.00
1700;DHT22;847;48.058;7.810;2024-01-30T03:32:13;2.40;99.00
1700;DHT22;847;48.058;7.810;2024-01-30T03:34:40;2.40;99.00
1700;DHT22;847;48.058;7.810;2024-01-30T03:37:07;2.60;99.00
1700;DHT22;847;48.058;7.810;2024-01-30T03:39:33;2.80;99.00
1700;DHT22;847;48.058;7.810;2024-01-30T03:42:03;3.10;99.00
1700;DHT22;847;48.058;7.810;2024-01-30T03:44:30;3.40;99.00
1700;DHT22;847;48.058;7.810;2024-01-30T03:46:56;3.70;99.00
1700;DHT22;847;48.058;7.810;2024-01-30T03:49:25;3.90;99.00
1700;DHT22;847;48.058;7.810;2024-01-30T03:51:52;4.20;99.00
1700;DHT22;847;48.058;7.810;2024-01-30T03:54:19;4.30;99.00
1700;DHT22;847;48.058;7.810;2024-01-30T03:56:47;4.60;99.00
1700;DHT22;847;48.058;7.810;2024-01-30T03:59:14;4.80;99.00
1700;DHT22;847;48.058;7.810;2024-01-30T04:01:41;4.90;99.00
1700;DHT22;847;48.058;7.810;2024-01-30T04:04:08;5.00;99.00
1700;DHT22;847;48.058;7.810;2024-01-30T04:06:36;5.10;99.00
1700;DHT22;847;48.058;7.810;2024-01-30T04:09:03;5.10;98.30
1700;DHT22;847;48.058;7.810;2024-01-30T04:11:30;4.20;98.80
1700;DHT22;847;48.058;7.810;2024-01-30T04:13:56;3.80;99.00
1700;DHT22;847;48.058;7.810;2024-01-30T04:16:23;3.70;99.00
1700;DHT22;847;48.058;7.810;2024-01-30T04:18:51;3.70;99.00
1700;DHT22;847;48.058;7.810;2024-01-30T04:21:18;3.70;99.00
1700;DHT22;847;48.058;7.810;2024-01-30T04:23:46;3.70;99.00
1700;DHT22;847;48.058;7.810;2024-01-30T04:26:13;3.60;99.00
1700;DHT22;847;48.058;7.810;2024-01-30T04:28:41;3.50;99.00
1700;DHT22;847;48.058;7.810;2024-01-30T04:31:08;3.50;99.00
1700;DHT22;847;48.058;7.810;2024-01-30T04:33:35;3.50;99.00
1700;DHT22;847;48.058;7.810;2024-01-30T04:36:02;3.50;99.00
1700;DHT22;847;48.058;7.810;2024-01-30T04:38:29;3.50;99.00
1700;DHT22;847;48.058;7.810;2024-01-30T04:40:57;3.50;99.00
1700;DHT22;847;48.058;7.810;2024-01-30T04:43:24;3.50;99.00
1700;DHT22;847;48.058;7.810;2024-01-30T04:45:51;3.50;99.00
1700;DHT22;847;48.058;7.810;2024-01-30T04:48:18;3.60;99.00
1700;DHT22;847;48.058;7.810;2024-01-30T04:50:46;3.50;99.00
1700;DHT22;847;48.058;7.810;2024-01-30T04:53:13;3.50;99.00
1700;DHT22;847;48.058;7.810;2024-01-30T04:55:40;3.50;99.00
1700;DHT22;847;48.058;7.810;2024-01-30T04:58:08;3.50;99.00
1700;DHT22;847;48.058;7.810;2024-01-30T05:00:45;3.50;99.00
1700;DHT22;847;48.058;7.810;2024-01-30T05:03:17;3.60;99.00
1700;DHT22;847;48.058;7.810;2024-01-30T05:05:43;3.50;99.00
1700;DHT22;847;48.058;7.810;2024-01-30T05:08:10;3.50;99.00
1700;DHT22;847;48.058;7.810;2024-01-30T05:10:37;3.50;99.00
1700;DHT22;847;48.058;7.810;2024-01-30T05:13:04;3.50;99.00
1700;DHT22;847;48.058;7.810;2024-01-30T05:15:33;3.50;99.00
1700;DHT22;847;48.058;7.810;2024-01-30T05:18:00;3.50;99.00
1700;DHT22;847;48.058;7.810;2024-01-30T05:20:27;3.50;99.00
1700;DHT22;847;48.058;7.810;2024-01-30T05:22:54;3.50;99.00
1700;DHT22;847;48.058;7.810;2024-01-30T05:25:36;3.50;99.00
1700;DHT22;847;48.058;7.810;2024-01-30T05:28:04;3.50;99.00
1700;DHT22;847;48.058;7.810;2024-01-30T05:30:34;3.50;99.00
1700;DHT22;847;48.058;7.810;2024-01-30T05:33:01;3.50;99.00
1700;DHT22;847;48.058;7.810;2024-01-30T05:35:29;3.50;99.00
1700;DHT22;847;48.058;7.810;2024-01-30T05:37:56;3.50;99.00
1700;DHT22;847;48.058;7.810;2024-01-30T05:40:24;3.50;99.00
1700;DHT22;847;48.058;7.810;2024-01-30T05:42:51;3.40;99.00
1700;DHT22;847;48.058;7.810;2024-01-30T05:45:18;3.40;99.00
1700;DHT22;847;48.058;7.810;2024-01-30T05:47:46;3.50;99.00
1700;DHT22;847;48.058;7.810;2024-01-30T05:50:13;3.50;99.00
1700;DHT22;847;48.058;7.810;2024-01-30T05:52:39;3.50;99.00
1700;DHT22;847;48.058;7.810;2024-01-30T05:55:07;3.50;99.00
1700;DHT22;847;48.058;7.810;2024-01-30T05:57:34;3.50;99.00
1700;DHT22;847;48.058;7.810;2024-01-30T06:00:02;3.40;99.00
1700;DHT22;847;48.058;7.810;2024-01-30T06:02:29;3.40;99.00
1700;DHT22;847;48.058;7.810;2024-01-30T06:04:58;3.40;99.00
1700;DHT22;847;48.058;7.810;2024-01-30T06:07:24;3.30;99.00
1700;DHT22;847;48.058;7.810;2024-01-30T06:09:51;3.30;99.00
1700;DHT22;847;48.058;7.810;2024-01-30T06:12:18;3.30;99.00
1700;DHT22;847;48.058;7.810;2024-01-30T06:14:44;3.30;99.00
1700;DHT22;847;48.058;7.810;2024-01-30T06:17:12;3.30;99.00
1700;DHT22;847;48.058;7.810;2024-01-30T06:19:39;3.30;99.00
1700;DHT22;847;48.058;7.810;2024-01-30T06:22:07;3.30;99.00
1700;DHT22;847;48.058;7.810;2024-01-30T06:24:34;3.30;99.00
1700;DHT22;847;48.058;7.810;2024-01-30T06:27:01;3.30;99.00
1700;DHT22;847;48.058;7.810;2024-01-30T06:29:28;3.20;99.00
1700;DHT22;847;48.058;7.810;2024-01-30T06:31:54;3.10;99.00
1700;DHT22;847;48.058;7.810;2024-01-30T06:34:23;3.00;99.00
1700;DHT22;847;48.058;7.810;2024-01-30T06:36:51;2.90;99.00
1700;DHT22;847;48.058;7.810;2024-01-30T06:39:19;2.80;99.00
1700;DHT22;847;48.058;7.810;2024-01-30T06:41:46;2.70;99.00
1700;DHT22;847;48.058;7.810;2024-01-30T06:44:13;2.70;99.00
1700;DHT22;847;48.058;7.810;2024-01-30T06:46:40;2.70;99.00
1700;DHT22;847;48.058;7.810;2024-01-30T06:49:06;2.90;99.00
1700;DHT22;847;48.058;7.810;2024-01-30T06:51:33;3.10;99.00
1700;DHT22;847;48.058;7.810;2024-01-30T06:54:00;3.50;99.00
1700;DHT22;847;48.058;7.810;2024-01-30T06:56:28;3.60;99.00
1700;DHT22;847;48.058;7.810;2024-01-30T06:58:55;3.50;99.00
1700;DHT22;847;48.058;7.810;2024-01-30T07:01:27;3.90;99.00
1700;DHT22;847;48.058;7.810;2024-01-30T07:03:54;4.20;99.00
1700;DHT22;847;48.058;7.810;2024-01-30T07:06:23;4.40;99.00
1700;DHT22;847;48.058;7.810;2024-01-30T07:08:50;4.70;99.00
1700;DHT22;847;48.058;7.810;2024-01-30T07:11:18;5.00;99.00
1700;DHT22;847;48.058;7.810;2024-01-30T07:13:50;5.20;99.00
1700;DHT22;847;48.058;7.810;2024-01-30T07:16:17;5.40;99.00
1700;DHT22;847;48.058;7.810;2024-01-30T07:18:51;5.50;99.00
1700;DHT22;847;48.058;7.810;2024-01-30T07:21:18;5.60;99.00
1700;DHT22;847;48.058;7.810;2024-01-30T07:23:47;5.80;99.00
1700;DHT22;847;48.058;7.810;2024-01-30T07:26:16;6.00;99.00
1700;DHT22;847;48.058;7.810;2024-01-30T07:28:43;6.10;99.00
1700;DHT22;847;48.058;7.810;2024-01-30T07:31:11;6.10;99.00
1700;DHT22;847;48.058;7.810;2024-01-30T07:33:38;6.20;99.00
1700;DHT22;847;48.058;7.810;2024-01-30T07:36:05;6.40;98.70
1700;DHT22;847;48.058;7.810;2024-01-30T07:38:32;6.50;98.30
1700;DHT22;847;48.058;7.810;2024-01-30T07:40:59;6.60;97.80
1700;DHT22;847;48.058;7.810;2024-01-30T07:43:26;6.70;97.60
1700;DHT22;847;48.058;7.810;2024-01-30T07:45:53;6.70;97.50
1700;DHT22;847;48.058;7.810;2024-01-30T07:48:21;6.70;97.50
1700;DHT22;847;48.058;7.810;2024-01-30T07:50:48;6.80;97.10
1700;DHT22;847;48.058;7.810;2024-01-30T07:53:16;6.90;96.60
1700;DHT22;847;48.058;7.810;2024-01-30T07:55:43;7.00;96.60
1700;DHT22;847;48.058;7.810;2024-01-30T07:58:12;7.10;96.30
1700;DHT22;847;48.058;7.810;2024-01-30T08:00:38;7.20;96.00
1700;DHT22;847;48.058;7.810;2024-01-30T08:03:05;7.20;95.60
1700;DHT22;847;48.058;7.810;2024-01-30T08:05:34;7.30;95.40
1700;DHT22;847;48.058;7.810;2024-01-30T08:08:01;7.30;95.20
1700;DHT22;847;48.058;7.810;2024-01-30T08:10:27;7.40;94.80
1700;DHT22;847;48.058;7.810;2024-01-30T08:12:54;7.50;94.70
1700;DHT22;847;48.058;7.810;2024-01-30T08:15:21;7.50;94.60
1700;DHT22;847;48.058;7.810;2024-01-30T08:17:48;7.60;94.30
1700;DHT22;847;48.058;7.810;2024-01-30T08:22:51;7.80;93.60
1700;DHT22;847;48.058;7.810;2024-01-30T08:25:25;7.90;93.30
1700;DHT22;847;48.058;7.810;2024-01-30T08:27:57;7.90;93.30
1700;DHT22;847;48.058;7.810;2024-01-30T08:30:56;8.00;93.30
1700;DHT22;847;48.058;7.810;2024-01-30T08:33:37;8.00;93.20
1700;DHT22;847;48.058;7.810;2024-01-30T08:36:41;8.00;93.30
1700;DHT22;847;48.058;7.810;2024-01-30T08:39:29;8.10;93.20
1700;DHT22;847;48.058;7.810;2024-01-30T08:42:28;8.10;93.20
1700;DHT22;847;48.058;7.810;2024-01-30T08:45:04;8.20;93.00
1700;DHT22;847;48.058;7.810;2024-01-30T08:47:39;8.20;93.00
1700;DHT22;847;48.058;7.810;2024-01-30T08:53:51;8.30;92.40
1700;DHT22;847;48.058;7.810;2024-01-30T08:58:59;8.40;92.00
1700;DHT22;847;48.058;7.810;2024-01-30T09:04:22;8.40;92.20
1700;DHT22;847;48.058;7.810;2024-01-30T09:13:24;8.50;91.60
1700;DHT22;847;48.058;7.810;2024-01-30T09:25:44;8.80;90.30
1700;DHT22;847;48.058;7.810;2024-01-30T09:38:05;8.90;89.60
1700;DHT22;847;48.058;7.810;2024-01-30T09:41:18;9.00;89.50
1700;DHT22;847;48.058;7.810;2024-01-30T09:43:58;9.10;89.50
1700;DHT22;847;48.058;7.810;2024-01-30T10:02:04;9.30;88.10
1700;DHT22;847;48.058;7.810;2024-01-30T10:15:13;9.50;87.90
1700;DHT22;847;48.058;7.810;2024-01-30T10:17:47;9.50;87.90
1700;DHT22;847;48.058;7.810;2024-01-30T10:20:35;9.50;87.80
1700;DHT22;847;48.058;7.810;2024-01-30T10:23:14;9.50;87.80
1700;DHT22;847;48.058;7.810;2024-01-30T10:25:57;9.60;88.40
1700;DHT22;847;48.058;7.810;2024-01-30T10:28:29;9.60;87.60
1700;DHT22;847;48.058;7.810;2024-01-30T10:31:26;9.60;87.90
1700;DHT22;847;48.058;7.810;2024-01-30T10:33:59;9.70;87.50
1700;DHT22;847;48.058;7.810;2024-01-30T10:39:14;9.80;87.70
1700;DHT22;847;48.058;7.810;2024-01-30T10:44:27;9.90;87.30
1700;DHT22;847;48.058;7.810;2024-01-30T10:47:03;9.90;86.70
1700;DHT22;847;48.058;7.810;2024-01-30T10:49:56;9.90;86.40
1700;DHT22;847;48.058;7.810;2024-01-30T10:52:30;10.00;86.00
1700;DHT22;847;48.058;7.810;2024-01-30T10:55:22;10.00;86.20
1700;DHT22;847;48.058;7.810;2024-01-30T10:57:52;10.10;86.00
1700;DHT22;847;48.058;7.810;2024-01-30T11:03:40;10.30;85.70
1700;DHT22;847;48.058;7.810;2024-01-30T11:09:37;10.30;85.40
1700;DHT22;847;48.058;7.810;2024-01-30T11:14:44;10.50;84.30
1700;DHT22;847;48.058;7.810;2024-01-30T11:17:50;10.60;84.70
1700;DHT22;847;48.058;7.810;2024-01-30T11:20:46;10.60;85.10
1700;DHT22;847;48.058;7.810;2024-01-30T11:23:22;10.60;84.80
1700;DHT22;847;48.058;7.810;2024-01-30T11:25:52;10.70;84.70
1700;DHT22;847;48.058;7.810;2024-01-30T11:28:25;10.70;84.60
1700;DHT22;847;48.058;7.810;2024-01-30T11:31:32;10.70;84.70
1700;DHT22;847;48.058;7.810;2024-01-30T11:34:00;10.80;84.70
1700;DHT22;847;48.058;7.810;2024-01-30T11:36:41;10.80;85.00
1700;DHT22;847;48.058;7.810;2024-01-30T11:39:12;10.90;85.10
1700;DHT22;847;48.058;7.810;2024-01-30T11:41:46;11.00;84.90
1700;DHT22;847;48.058;7.810;2024-01-30T11:44:18;11.00;85.00
1700;DHT22;847;48.058;7.810;2024-01-30T11:46:46;11.00;84.40
1700;DHT22;847;48.058;7.810;2024-01-30T11:49:25;11.00;85.00
1700;DHT22;847;48.058;7.810;2024-01-30T11:51:53;11.10;85.10
1700;DHT22;847;48.058;7.810;2024-01-30T11:54:20;11.20;85.50
1700;DHT22;847;48.058;7.810;2024-01-30T11:56:49;11.20;85.30
1700;DHT22;847;48.058;7.810;2024-01-30T12:02:24;11.30;85.20
1700;DHT22;847;48.058;7.810;2024-01-30T12:04:51;11.40;85.30
1700;DHT22;847;48.058;7.810;2024-01-30T12:07:18;11.40;84.90
1700;DHT22;847;48.058;7.810;2024-01-30T12:12:42;11.40;84.50
1700;DHT22;847;48.058;7.810;2024-01-30T12:15:13;11.40;84.20
1700;DHT22;847;48.058;7.810;2024-01-30T12:17:41;11.40;84.40
1700;DHT22;847;48.058;7.810;2024-01-30T12:20:20;11.40;84.30
1700;DHT22;847;48.058;7.810;2024-01-30T12:22:49;11.40;84.50
1700;DHT22;847;48.058;7.810;2024-01-30T12:25:17;11.40;84.70
1700;DHT22;847;48.058;7.810;2024-01-30T12:27:48;11.40;84.30
1700;DHT22;847;48.058;7.810;2024-01-30T12:30:17;11.40;84.60
1700;DHT22;847;48.058;7.810;2024-01-30T12:32:46;11.40;85.00
1700;DHT22;847;48.058;7.810;2024-01-30T12:35:15;11.40;85.50
1700;DHT22;847;48.058;7.810;2024-01-30T12:40:27;11.30;85.60
1700;DHT22;847;48.058;7.810;2024-01-30T12:42:56;11.30;85.80
1700;DHT22;847;48.058;7.810;2024-01-30T12:45:25;11.40;86.00
1700;DHT22;847;48.058;7.810;2024-01-30T12:48:28;11.40;85.70
1700;DHT22;847;48.058;7.810;2024-01-30T12:50:59;11.40;86.10
1700;DHT22;847;48.058;7.810;2024-01-30T12:53:36;11.40;86.30
1700;DHT22;847;48.058;7.810;2024-01-30T12:56:04;11.40;86.30
1700;DHT22;847;48.058;7.810;2024-01-30T12:58:32;11.40;86.30
1700;DHT22;847;48.058;7.810;2024-01-30T13:00:59;11.40;86.00
1700;DHT22;847;48.058;7.810;2024-01-30T13:03:26;11.40;85.90
1700;DHT22;847;48.058;7.810;2024-01-30T13:09:15;11.40;85.20
1700;DHT22;847;48.058;7.810;2024-01-30T13:11:41;11.40;85.60
1700;DHT22;847;48.058;7.810;2024-01-30T13:14:10;11.40;85.20
1700;DHT22;847;48.058;7.810;2024-01-30T13:16:37;11.50;84.90
1700;DHT22;847;48.058;7.810;2024-01-30T13:19:07;11.50;84.70
1700;DHT22;847;48.058;7.810;2024-01-30T13:21:34;11.50;84.40
1700;DHT22;847;48.058;7.810;2024-01-30T13:24:01;11.50;84.60
1700;DHT22;847;48.058;7.810;2024-01-30T13:29:52;11.40;84.60
1700;DHT22;847;48.058;7.810;2024-01-30T13:32:19;11.40;85.40
1700;DHT22;847;48.058;7.810;2024-01-30T13:34:45;11.50;85.50
1700;DHT22;847;48.058;7.810;2024-01-30T13:37:13;11.40;85.20
1700;DHT22;847;48.058;7.810;2024-01-30T13:42:58;11.50;84.20
1700;DHT22;847;48.058;7.810;2024-01-30T13:45:27;11.50;84.60
1700;DHT22;847;48.058;7.810;2024-01-30T13:51:22;11.50;84.80
1700;DHT22;847;48.058;7.810;2024-01-30T13:53:51;11.50;85.00
1700;DHT22;847;48.058;7.810;2024-01-30T13:56:19;11.50;84.90
1700;DHT22;847;48.058;7.810;2024-01-30T13:58:47;11.50;85.20
1700;DHT22;847;48.058;7.810;2024-01-30T14:01:15;11.60;85.50
1700;DHT22;847;48.058;7.810;2024-01-30T14:03:42;11.60;84.50
1700;DHT22;847;48.058;7.810;2024-01-30T14:06:09;11.60;85.00
1700;DHT22;847;48.058;7.810;2024-01-30T14:08:36;11.60;85.40
1700;DHT22;847;48.058;7.810;2024-01-30T14:11:03;11.60;85.60
1700;DHT22;847;48.058;7.810;2024-01-30T14:13:30;11.60;85.70
1700;DHT22;847;48.058;7.810;2024-01-30T14:15:58;11.60;85.60
1700;DHT22;847;48.058;7.810;2024-01-30T14:18:26;11.60;84.60
1700;DHT22;847;48.058;7.810;2024-01-30T14:20:53;11.60;85.00
1700;DHT22;847;48.058;7.810;2024-01-30T14:23:20;11.60;85.40
1700;DHT22;847;48.058;7.810;2024-01-30T14:25:48;11.60;85.80
1700;DHT22;847;48.058;7.810;2024-01-30T14:28:17;11.60;86.10
1700;DHT22;847;48.058;7.810;2024-01-30T14:30:43;11.60;86.30
1700;DHT22;847;48.058;7.810;2024-01-30T14:33:10;11.60;86.00
1700;DHT22;847;48.058;7.810;2024-01-30T14:35:38;11.60;86.70
1700;DHT22;847;48.058;7.810;2024-01-30T14:38:05;11.60;86.10
1700;DHT22;847;48.058;7.810;2024-01-30T14:40:33;11.60;86.50
1700;DHT22;847;48.058;7.810;2024-01-30T14:43:00;11.50;86.80
1700;DHT22;847;48.058;7.810;2024-01-30T14:45:26;11.50;86.70
1700;DHT22;847;48.058;7.810;2024-01-30T14:47:53;11.60;87.00
1700;DHT22;847;48.058;7.810;2024-01-30T14:50:21;11.60;86.90
1700;DHT22;847;48.058;7.810;2024-01-30T14:52:50;11.60;87.30
1700;DHT22;847;48.058;7.810;2024-01-30T14:55:17;11.50;87.30
1700;DHT22;847;48.058;7.810;2024-01-30T14:57:44;11.50;86.90
1700;DHT22;847;48.058;7.810;2024-01-30T15:00:12;11.50;87.10
1700;DHT22;847;48.058;7.810;2024-01-30T15:02:40;11.50;87.20
1700;DHT22;847;48.058;7.810;2024-01-30T15:05:07;11.50;86.60
1700;DHT22;847;48.058;7.810;2024-01-30T15:07:36;11.50;86.90
1700;DHT22;847;48.058;7.810;2024-01-30T15:10:05;11.50;86.60
1700;DHT22;847;48.058;7.810;2024-01-30T15:12:31;11.50;87.00
1700;DHT22;847;48.058;7.810;2024-01-30T15:14:58;11.50;86.40
1700;DHT22;847;48.058;7.810;2024-01-30T15:17:25;11.50;86.40
1700;DHT22;847;48.058;7.810;2024-01-30T15:19:52;11.50;86.40
1700;DHT22;847;48.058;7.810;2024-01-30T15:22:19;11.50;86.60
1700;DHT22;847;48.058;7.810;2024-01-30T15:24:45;11.50;86.50
1700;DHT22;847;48.058;7.810;2024-01-30T15:27:14;11.50;86.20
1700;DHT22;847;48.058;7.810;2024-01-30T15:29:41;11.50;85.80
1700;DHT22;847;48.058;7.810;2024-01-30T15:32:08;11.50;85.90
1700;DHT22;847;48.058;7.810;2024-01-30T15:34:34;11.40;86.00
1700;DHT22;847;48.058;7.810;2024-01-30T15:37:03;11.50;85.70
1700;DHT22;847;48.058;7.810;2024-01-30T15:39:32;11.40;86.10
1700;DHT22;847;48.058;7.810;2024-01-30T15:41:59;11.40;85.60
1700;DHT22;847;48.058;7.810;2024-01-30T15:44:27;11.50;84.90
1700;DHT22;847;48.058;7.810;2024-01-30T15:46:56;11.40;84.90
1700;DHT22;847;48.058;7.810;2024-01-30T15:49:24;11.40;85.40
1700;DHT22;847;48.058;7.810;2024-01-30T15:51:51;11.40;85.80
1700;DHT22;847;48.058;7.810;2024-01-30T15:54:18;11.40;85.80
1700;DHT22;847;48.058;7.810;2024-01-30T15:56:46;11.40;86.00
1700;DHT22;847;48.058;7.810;2024-01-30T15:59:13;11.30;86.30
1700;DHT22;847;48.058;7.810;2024-01-30T16:01:43;11.30;86.60
1700;DHT22;847;48.058;7.810;2024-01-30T16:04:13;11.30;86.50
1700;DHT22;847;48.058;7.810;2024-01-30T16:09:39;11.20;87.20
1700;DHT22;847;48.058;7.810;2024-01-30T16:12:07;11.20;87.50
1700;DHT22;847;48.058;7.810;2024-01-30T16:14:36;11.10;88.00
1700;DHT22;847;48.058;7.810;2024-01-30T16:17:04;11.00;88.40
1700;DHT22;847;48.058;7.810;2024-01-30T16:19:34;11.00;88.80
1700;DHT22;847;48.058;7.810;2024-01-30T16:22:10;11.00;89.20
1700;DHT22;847;48.058;7.810;2024-01-30T16:24:40;10.90;89.40
1700;DHT22;847;48.058;7.810;2024-01-30T16:27:07;10.90;90.00
1700;DHT22;847;48.058;7.810;2024-01-30T16:29:40;10.80;90.30
1700;DHT22;847;48.058;7.810;2024-01-30T16:32:09;10.80;90.40
1700;DHT22;847;48.058;7.810;2024-01-30T16:34:37;10.80;90.60
1700;DHT22;847;48.058;7.810;2024-01-30T16:37:11;10.70;90.70
1700;DHT22;847;48.058;7.810;2024-01-30T16:39:46;10.70;91.20
1700;DHT22;847;48.058;7.810;2024-01-30T16:42:34;10.70;91.90
1700;DHT22;847;48.058;7.810;2024-01-30T16:45:05;10.70;91.70
1700;DHT22;847;48.058;7.810;2024-01-30T17:06:50;10.50;92.00
1700;DHT22;847;48.058;7.810;2024-01-30T17:09:17;10.40;92.40
1700;DHT22;847;48.058;7.810;2024-01-30T17:11:44;10.30;92.30
1700;DHT22;847;48.058;7.810;2024-01-30T17:14:11;10.30;92.90
1700;DHT22;847;48.058;7.810;2024-01-30T17:16:39;10.30;93.10
1700;DHT22;847;48.058;7.810;2024-01-30T17:19:06;10.30;92.80
1700;DHT22;847;48.058;7.810;2024-01-30T17:21:34;10.30;93.00
1700;DHT22;847;48.058;7.810;2024-01-30T17:24:04;10.30;92.90
1700;DHT22;847;48.058;7.810;2024-01-30T17:26:32;10.20;93.20
1700;DHT22;847;48.058;7.810;2024-01-30T17:28:59;10.20;93.60
1700;DHT22;847;48.058;7.810;2024-01-30T17:31:26;10.20;93.60
1700;DHT22;847;48.058;7.810;2024-01-30T17:33:53;10.20;93.60
1700;DHT22;847;48.058;7.810;2024-01-30T17:36:20;10.10;93.60
1700;DHT22;847;48.058;7.810;2024-01-30T17:38:47;10.10;93.60
1700;DHT22;847;48.058;7.810;2024-01-30T17:41:16;10.10;93.80
1700;DHT22;847;48.058;7.810;2024-01-30T17:43:42;10.10;94.10
1700;DHT22;847;48.058;7.810;2024-01-30T17:46:09;10.10;94.20
1700;DHT22;847;48.058;7.810;2024-01-30T17:48:36;10.10;94.20
1700;DHT22;847;48.058;7.810;2024-01-30T17:51:03;10.10;93.90
1700;DHT22;847;48.058;7.810;2024-01-30T17:53:30;10.00;94.70
1700;DHT22;847;48.058;7.810;2024-01-30T17:55:57;9.90;94.60
1700;DHT22;847;48.058;7.810;2024-01-30T17:58:32;9.90;94.90
1700;DHT22;847;48.058;7.810;2024-01-30T18:00:59;9.90;95.20
1700;DHT22;847;48.058;7.810;2024-01-30T18:03:26;9.90;95.30
1700;DHT22;847;48.058;7.810;2024-01-30T18:05:53;10.00;95.40
1700;DHT22;847;48.058;7.810;2024-01-30T18:08:20;9.90;95.40
1700;DHT22;847;48.058;7.810;2024-01-30T18:10:48;9.90;95.20
1700;DHT22;847;48.058;7.810;2024-01-30T18:13:16;9.90;95.30
1700;DHT22;847;48.058;7.810;2024-01-30T18:15:44;9.90;95.60
1700;DHT22;847;48.058;7.810;2024-01-30T18:18:11;9.90;95.50
1700;DHT22;847;48.058;7.810;2024-01-30T18:20:38;9.90;95.50
1700;DHT22;847;48.058;7.810;2024-01-30T18:23:05;9.90;94.80
1700;DHT22;847;48.058;7.810;2024-01-30T18:25:32;9.90;94.80
1700;DHT22;847;48.058;7.810;2024-01-30T18:27:59;9.70;94.90
1700;DHT22;847;48.058;7.810;2024-01-30T18:30:26;9.70;95.00
1700;DHT22;847;48.058;7.810;2024-01-30T18:32:54;9.70;94.90
1700;DHT22;847;48.058;7.810;2024-01-30T18:35:24;9.70;95.10
1700;DHT22;847;48.058;7.810;2024-01-30T18:37:51;9.60;95.10
1700;DHT22;847;48.058;7.810;2024-01-30T18:40:18;9.50;95.60
1700;DHT22;847;48.058;7.810;2024-01-30T18:42:44;9.40;96.10
1700;DHT22;847;48.058;7.810;2024-01-30T18:45:11;9.30;96.30
1700;DHT22;847;48.058;7.810;2024-01-30T18:47:38;9.30;96.70